Погода Фалькновона 2 недели

Варминско-Мазурское воеводство, Польша

18 - 30 июля
  • 18июля
    Сегодня
    +14°
    +23°
    Облачно с прояснениями
    ВремяПогодаТемператураВлажностьДавлениеВетер, м/сВероятность осадков
    02:00Практически безоблачно+17°C89 %755 мм1.8 м/с2 %
    05:00Облачно с прояснениями+16°C92 %756 мм1.8 м/с2 %
    08:00Ясно и безоблачно+19°C76 %756 мм3.3 м/с2 %
    11:00Небольшая облачность+21°C63 %756 мм4.8 м/с10 %
    14:00Облачно с прояснениями+21°C59 %757 мм4.5 м/с15 %
    17:00Практически безоблачно+23°C54 %756 мм4.2 м/с3 %
    20:00Облачно с прояснениями+21°C64 %756 мм3.7 м/с2 %
    23:00Облачно с прояснениями+17°C79 %757 мм2.5 м/с2 %
  • 19июля
    Пятница
    +13°
    +24°
    Небольшая облачность
    ВремяПогодаТемператураВлажностьДавлениеВетер, м/сВероятность осадков
    02:00Ясно и безоблачно+15°C88 %757 мм2.2 м/с2 %
    05:00Ясно и безоблачно+14°C94 %757 мм1.9 м/с2 %
    08:00Ясно и безоблачно+17°C77 %757 мм2.6 м/с2 %
    11:00Практически безоблачно+21°C58 %757 мм4.0 м/с2 %
    14:00Небольшая облачность+23°C47 %756 мм3.5 м/с2 %
    17:00Ясно и безоблачно+23°C47 %755 мм3.4 м/с2 %
    20:00Ясно и безоблачно+21°C62 %754 мм2.6 м/с2 %
    23:00Ясно и безоблачно+16°C89 %754 мм1.9 м/с2 %
  • 20июля
    Суббота
    +14°
    +25°
    Ясно и безоблачно
    ВремяПогодаТемператураВлажностьДавлениеВетер, м/сВероятность осадков
    02:00Ясно и безоблачно+14°C97 %754 мм1.8 м/с2 %
    05:00Пасмурно, сплошная облачность+13°C100 %753 мм1.1 м/с2 %
    08:00Облачно с прояснениями+16°C95 %753 мм1.1 м/с2 %
    11:00Ясно и безоблачно+21°C53 %752 мм1.3 м/с2 %
    14:00Ясно и безоблачно+24°C43 %752 мм2.0 м/с2 %
    17:00Ясно и безоблачно+25°C41 %751 мм1.8 м/с2 %
    20:00Ясно и безоблачно+22°C64 %750 мм1.2 м/с2 %
    23:00Ясно и безоблачно+18°C83 %750 мм2.1 м/с2 %
  • 21июля
    Воскресенье
    +16°
    +26°
    Ясно и безоблачно
    ВремяПогодаТемператураВлажностьДавлениеВетер, м/сВероятность осадков
    02:00Ясно и безоблачно+16°C92 %750 мм1.9 м/с2 %
    05:00Ясно и безоблачно+14°C95 %749 мм1.8 м/с2 %
    08:00Ясно и безоблачно+21°C71 %749 мм0.9 м/с2 %
    11:00Ясно и безоблачно+24°C50 %749 мм0.1 м/с2 %
    14:00Ясно и безоблачно+26°C44 %748 мм0.7 м/с2 %
    17:00Ясно и безоблачно+28°C41 %747 мм1.8 м/с2 %
    20:00Ясно и безоблачно+24°C57 %747 мм1.7 м/с2 %
    23:00Ясно и безоблачно+19°C76 %748 мм2.9 м/с2 %
Мы используем cookies
Соглашаюсь